createdAt,value
2022-10-24T00:01:43.977Z,14.53
2022-10-24T00:06:46.738Z,14.49
2022-10-24T00:11:51.978Z,14.41
2022-10-24T00:21:57.316Z,14.38
2022-10-24T00:26:59.920Z,14.36
2022-10-24T00:32:03.071Z,14.34
2022-10-24T00:37:08.885Z,14.34
2022-10-24T00:42:12.482Z,14.37
2022-10-24T00:52:17.918Z,14.32
2022-10-24T01:02:23.452Z,14.18
2022-10-24T01:07:26.014Z,14.15
2022-10-24T01:12:28.682Z,14.26
2022-10-24T01:22:34.286Z,14.43
2022-10-24T01:27:37.386Z,14.44
2022-10-24T01:32:44.471Z,14.5
2022-10-24T01:37:47.475Z,14.57
2022-10-24T01:42:52.559Z,14.5
2022-10-24T01:47:55.330Z,14.44
2022-10-24T01:52:57.941Z,14.41
2022-10-24T02:03:06.191Z,14.28
2022-10-24T02:13:12.084Z,14.16
2022-10-24T02:18:14.788Z,14.14
2022-10-24T02:23:17.259Z,14.13
2022-10-24T02:28:22.781Z,14.07
2022-10-24T02:33:25.268Z,14.02
2022-10-24T02:38:27.536Z,14.05
2022-10-24T02:43:30.425Z,14.05
2022-10-24T02:48:32.968Z,14.02
2022-10-24T02:53:35.592Z,13.94
2022-10-24T02:58:38.323Z,13.9
2022-10-24T03:03:41.130Z,13.85
2022-10-24T03:08:43.816Z,13.82
2022-10-24T03:13:46.574Z,13.77
2022-10-24T03:18:49.137Z,13.76
2022-10-24T03:23:51.823Z,13.69
2022-10-24T03:28:54.445Z,13.64
2022-10-24T03:33:57.346Z,13.69
2022-10-24T03:39:00.171Z,13.64
2022-10-24T03:44:03.050Z,13.6
2022-10-24T03:49:06.049Z,13.56
2022-10-24T03:54:08.871Z,13.51
2022-10-24T03:59:11.457Z,13.45
2022-10-24T04:09:17.559Z,13.44
2022-10-24T04:14:20.248Z,13.41
2022-10-24T04:19:22.815Z,13.38
2022-10-24T04:24:25.385Z,13.37
2022-10-24T04:29:28.279Z,13.4
2022-10-24T04:34:30.695Z,13.39
2022-10-24T04:39:36.403Z,13.38
2022-10-24T04:44:39.341Z,13.45
2022-10-24T04:54:44.735Z,13.44
2022-10-24T04:59:47.427Z,13.45
2022-10-24T05:04:50.256Z,13.41
2022-10-24T05:09:52.954Z,13.42
2022-10-24T05:14:55.714Z,13.46
2022-10-24T05:25:03.974Z,13.46
2022-10-24T05:30:06.923Z,13.53
2022-10-24T05:35:09.752Z,13.49
2022-10-24T05:40:12.301Z,13.49
2022-10-24T06:00:23.000Z,13.47
2022-10-24T06:05:25.802Z,13.45
2022-10-24T06:10:28.583Z,13.56
2022-10-24T06:15:31.451Z,13.71
2022-10-24T06:20:34.125Z,13.69
2022-10-24T06:25:36.950Z,13.8
2022-10-24T06:35:42.454Z,13.96
2022-10-24T06:55:55.291Z,14.27
2022-10-24T07:00:57.976Z,14.37
2022-10-24T07:06:00.950Z,14.41
2022-10-24T07:21:11.852Z,14.77
2022-10-24T07:26:14.610Z,14.9
2022-10-24T07:31:20.075Z,15.17
2022-10-24T07:36:25.580Z,15.34
2022-10-24T07:41:31.225Z,15.53
2022-10-24T07:51:45.667Z,15.88
2022-10-24T07:56:48.341Z,16.07
2022-10-24T08:01:51.110Z,16.22
2022-10-24T08:06:53.830Z,16.29
2022-10-24T08:11:56.524Z,16.49
2022-10-24T08:16:59.188Z,16.62
2022-10-24T08:22:02.032Z,16.87
2022-10-24T08:27:04.932Z,17.18
2022-10-24T08:32:07.935Z,17.28
2022-10-24T08:37:10.568Z,17.63
2022-10-24T08:42:13.262Z,17.72
2022-10-24T08:47:15.886Z,17.8
2022-10-24T08:52:21.554Z,17.92
2022-10-24T08:57:24.102Z,17.84
2022-10-24T09:02:26.798Z,17.96
2022-10-24T09:07:29.378Z,18.02
2022-10-24T09:12:31.852Z,18.18
2022-10-24T09:17:34.686Z,18.17
2022-10-24T09:22:39.565Z,18.29
2022-10-24T09:27:41.365Z,18.38
2022-10-24T09:32:44.407Z,18.43
2022-10-24T09:37:47.726Z,18.58
2022-10-24T09:42:49.987Z,18.86
2022-10-24T09:47:52.671Z,19.12
2022-10-24T09:52:56.229Z,19.15
2022-10-24T09:57:58.823Z,19.12
2022-10-24T10:03:01.655Z,19.38
2022-10-24T10:08:04.365Z,19.33
2022-10-24T10:13:07.094Z,19.56
2022-10-24T10:18:09.878Z,19.61
2022-10-24T10:23:12.523Z,19.64
2022-10-24T10:28:15.044Z,19.7
2022-10-24T10:33:17.962Z,19.66
2022-10-24T10:38:20.627Z,19.8
2022-10-24T10:43:23.373Z,19.69
2022-10-24T10:48:26.134Z,19.69
2022-10-24T10:53:28.916Z,19.84
2022-10-24T10:58:31.553Z,19.87
2022-10-24T11:03:34.031Z,19.9
2022-10-24T11:08:36.885Z,19.95
2022-10-24T11:13:39.293Z,19.91
2022-10-24T11:18:41.962Z,19.95
2022-10-24T11:23:44.741Z,19.67
2022-10-24T11:28:47.345Z,19.9
2022-10-24T11:33:50.082Z,20.09
2022-10-24T11:38:52.863Z,20.01
2022-10-24T11:43:55.235Z,20.08
2022-10-24T11:48:58.068Z,20.01
2022-10-24T11:54:00.707Z,20.07
2022-10-24T11:59:03.155Z,20.05
2022-10-24T12:04:05.830Z,20.08
2022-10-24T12:09:08.675Z,20.09
2022-10-24T12:14:11.332Z,20.24
2022-10-24T12:19:14.121Z,20.43
2022-10-24T12:24:16.774Z,20.37
2022-10-24T12:29:19.436Z,20.32
2022-10-24T12:34:22.193Z,20.32
2022-10-24T12:44:27.707Z,20.37
2022-10-24T12:49:30.363Z,20.49
2022-10-24T12:54:33.009Z,20.62
2022-10-24T12:59:35.767Z,21.05
2022-10-24T13:04:38.201Z,20.99
2022-10-24T13:09:40.824Z,20.94
2022-10-24T13:14:43.452Z,20.75
2022-10-24T13:19:50.026Z,20.59
2022-10-24T13:24:52.938Z,20.53
2022-10-24T13:34:58.340Z,20.42
2022-10-24T13:40:00.884Z,20.34
2022-10-24T13:45:03.468Z,20.43
2022-10-24T13:50:06.247Z,20.31
2022-10-24T14:00:11.616Z,20.05
2022-10-24T14:05:14.445Z,19.99
2022-10-24T14:10:17.139Z,19.98
2022-10-24T14:15:19.890Z,19.95
2022-10-24T14:20:22.399Z,20.01
2022-10-24T14:25:25.578Z,20.04
2022-10-24T14:30:30.753Z,20.17
2022-10-24T14:35:31.730Z,19.94
2022-10-24T14:40:34.386Z,19.85
2022-10-24T14:45:37.218Z,19.85
2022-10-24T14:50:40.198Z,19.84
2022-10-24T14:55:42.864Z,19.73
2022-10-24T15:00:45.244Z,19.63
2022-10-24T15:05:47.848Z,19.49
2022-10-24T15:16:20.575Z,19.29
2022-10-24T15:21:22.990Z,19.1
2022-10-24T15:26:25.541Z,18.91
2022-10-24T15:31:28.253Z,18.8
2022-10-24T15:36:31.545Z,18.66
2022-10-24T15:41:33.398Z,18.51
2022-10-24T15:46:36.064Z,18.41
2022-10-24T15:51:38.601Z,18.36
2022-10-24T15:56:41.289Z,18.3
2022-10-24T16:01:43.996Z,18.31
2022-10-24T16:06:46.559Z,18.22
2022-10-24T16:11:49.134Z,18.2
2022-10-24T16:16:55.316Z,18.13
2022-10-24T16:21:54.723Z,18.21
2022-10-24T16:26:57.095Z,18.11
2022-10-24T16:32:02.414Z,18.05
2022-10-24T16:37:05.039Z,17.98
2022-10-24T16:42:07.739Z,17.91
2022-10-24T16:47:10.247Z,17.87
2022-10-24T16:52:12.795Z,17.8
2022-10-24T16:57:15.410Z,17.75
2022-10-24T17:07:23.528Z,17.67
2022-10-24T17:12:26.035Z,17.56
2022-10-24T17:17:28.766Z,17.55
2022-10-24T17:27:33.951Z,17.4
2022-10-24T17:32:36.572Z,17.49
2022-10-24T17:37:39.309Z,17.48
2022-10-24T17:42:42.208Z,17.35
2022-10-24T17:52:48.189Z,17.34
2022-10-24T17:57:50.364Z,17.3
2022-10-24T18:02:52.758Z,17.21
2022-10-24T18:07:55.358Z,17.21
2022-10-24T18:18:00.851Z,17
2022-10-24T18:23:03.521Z,17.06
2022-10-24T18:33:09.269Z,16.91
2022-10-24T18:38:11.886Z,16.82
2022-10-24T18:43:14.332Z,16.84
2022-10-24T18:48:16.725Z,16.8
2022-10-24T18:53:21.460Z,16.8
2022-10-24T18:58:22.196Z,16.77
2022-10-24T19:03:24.995Z,16.87
2022-10-24T19:08:27.625Z,16.79
2022-10-24T19:13:30.046Z,16.68
2022-10-24T19:18:32.699Z,16.58
2022-10-24T19:23:35.423Z,16.54
2022-10-24T19:28:38.168Z,16.49
2022-10-24T19:33:40.873Z,16.45
2022-10-24T19:38:43.640Z,16.29
2022-10-24T19:43:46.013Z,16.27
2022-10-24T19:48:48.669Z,16.24
2022-10-24T19:53:51.402Z,16.16
2022-10-24T19:58:53.967Z,16.08
2022-10-24T20:03:56.560Z,16.09
2022-10-24T20:08:59.175Z,16.11
2022-10-24T20:14:01.761Z,16.11
2022-10-24T20:19:04.270Z,16.06
2022-10-24T20:24:06.848Z,15.96
2022-10-24T20:34:12.079Z,15.94
2022-10-24T20:39:14.870Z,15.93
2022-10-24T20:44:17.526Z,15.82
2022-10-24T20:54:22.960Z,15.77
2022-10-24T20:59:25.629Z,15.72
2022-10-24T21:04:28.543Z,15.7
2022-10-24T21:09:31.026Z,15.63
2022-10-24T21:14:33.692Z,15.59
2022-10-24T21:19:36.654Z,15.56
2022-10-24T21:24:39.223Z,15.46
2022-10-24T21:29:41.823Z,15.45
2022-10-24T21:34:44.529Z,15.53
2022-10-24T21:39:47.225Z,15.38
2022-10-24T21:44:49.900Z,15.31
2022-10-24T21:49:52.282Z,15.24
2022-10-24T21:54:54.846Z,15.16
2022-10-24T21:59:57.411Z,15.12
2022-10-24T22:04:59.985Z,15.01
2022-10-24T22:10:02.894Z,14.95
2022-10-24T22:15:05.535Z,15.02
2022-10-24T22:20:08.173Z,15.16
2022-10-24T22:25:10.864Z,15.15
2022-10-24T22:30:13.507Z,15.15
2022-10-24T22:35:16.063Z,15.04
2022-10-24T22:40:19.018Z,14.97
2022-10-24T22:45:21.554Z,14.9
2022-10-24T22:50:26.925Z,14.76
2022-10-24T22:55:29.872Z,14.68
2022-10-24T23:00:32.479Z,14.63
2022-10-24T23:05:35.191Z,14.53
2022-10-24T23:10:38.088Z,14.36
2022-10-24T23:15:40.615Z,14.25
2022-10-24T23:20:43.208Z,14.22
2022-10-24T23:25:45.939Z,14.17
2022-10-24T23:30:48.612Z,14.18
2022-10-24T23:35:51.501Z,14.12
2022-10-24T23:45:56.924Z,14.06
2022-10-24T23:56:02.068Z,13.97
